sensor_id;sensor_type;location;lat;lon;timestamp;P1;durP1;ratioP1;P2;durP2;ratioP2
12474;SDS011;6302;42.624;23.334;2023-02-24T00:01:58;9.57;;;6.87;;
12474;SDS011;6302;42.624;23.334;2023-02-24T00:04:28;11.47;;;7.70;;
12474;SDS011;6302;42.624;23.334;2023-02-24T00:06:56;7.77;;;6.80;;
12474;SDS011;6302;42.624;23.334;2023-02-24T00:09:25;10.00;;;7.17;;
12474;SDS011;6302;42.624;23.334;2023-02-24T00:11:56;11.37;;;7.80;;
12474;SDS011;6302;42.624;23.334;2023-02-24T00:14:25;9.20;;;6.47;;
12474;SDS011;6302;42.624;23.334;2023-02-24T00:16:53;9.40;;;6.40;;
12474;SDS011;6302;42.624;23.334;2023-02-24T00:19:21;9.70;;;6.37;;
12474;SDS011;6302;42.624;23.334;2023-02-24T00:21:49;10.40;;;6.80;;
12474;SDS011;6302;42.624;23.334;2023-02-24T00:24:18;10.57;;;7.07;;
12474;SDS011;6302;42.624;23.334;2023-02-24T00:26:45;9.50;;;6.97;;
12474;SDS011;6302;42.624;23.334;2023-02-24T00:29:19;8.17;;;6.53;;
12474;SDS011;6302;42.624;23.334;2023-02-24T00:31:48;9.17;;;6.67;;
12474;SDS011;6302;42.624;23.334;2023-02-24T00:34:20;10.27;;;7.33;;
12474;SDS011;6302;42.624;23.334;2023-02-24T00:36:48;9.77;;;7.57;;
12474;SDS011;6302;42.624;23.334;2023-02-24T00:39:15;11.00;;;7.57;;
12474;SDS011;6302;42.624;23.334;2023-02-24T00:41:42;12.17;;;7.27;;
12474;SDS011;6302;42.624;23.334;2023-02-24T00:44:11;9.37;;;7.30;;
12474;SDS011;6302;42.624;23.334;2023-02-24T00:46:41;9.43;;;7.33;;
12474;SDS011;6302;42.624;23.334;2023-02-24T00:49:10;11.80;;;7.57;;
12474;SDS011;6302;42.624;23.334;2023-02-24T00:51:41;9.33;;;6.80;;
12474;SDS011;6302;42.624;23.334;2023-02-24T00:54:09;10.03;;;6.30;;
12474;SDS011;6302;42.624;23.334;2023-02-24T00:56:39;8.47;;;7.37;;
12474;SDS011;6302;42.624;23.334;2023-02-24T00:59:06;9.20;;;6.60;;
12474;SDS011;6302;42.624;23.334;2023-02-24T01:01:33;8.67;;;7.50;;
12474;SDS011;6302;42.624;23.334;2023-02-24T01:04:04;11.90;;;8.40;;
12474;SDS011;6302;42.624;23.334;2023-02-24T01:06:36;9.90;;;7.43;;
12474;SDS011;6302;42.624;23.334;2023-02-24T01:09:04;9.70;;;6.83;;
12474;SDS011;6302;42.624;23.334;2023-02-24T01:11:36;10.03;;;7.77;;
12474;SDS011;6302;42.624;23.334;2023-02-24T01:14:21;8.97;;;7.27;;
12474;SDS011;6302;42.624;23.334;2023-02-24T01:16:50;11.57;;;7.30;;
12474;SDS011;6302;42.624;23.334;2023-02-24T01:19:18;9.13;;;6.60;;
12474;SDS011;6302;42.624;23.334;2023-02-24T01:21:46;9.63;;;6.90;;
12474;SDS011;6302;42.624;23.334;2023-02-24T01:24:17;10.63;;;7.50;;
12474;SDS011;6302;42.624;23.334;2023-02-24T01:26:44;8.30;;;6.40;;
12474;SDS011;6302;42.624;23.334;2023-02-24T01:29:10;7.97;;;6.37;;
12474;SDS011;6302;42.624;23.334;2023-02-24T01:31:38;9.53;;;6.70;;
12474;SDS011;6302;42.624;23.334;2023-02-24T01:34:08;8.00;;;6.20;;
12474;SDS011;6302;42.624;23.334;2023-02-24T01:36:38;10.00;;;7.07;;
12474;SDS011;6302;42.624;23.334;2023-02-24T01:39:08;10.33;;;6.70;;
12474;SDS011;6302;42.624;23.334;2023-02-24T01:41:36;11.00;;;7.00;;
12474;SDS011;6302;42.624;23.334;2023-02-24T01:44:06;10.37;;;7.07;;
12474;SDS011;6302;42.624;23.334;2023-02-24T01:46:54;13.83;;;8.17;;
12474;SDS011;6302;42.624;23.334;2023-02-24T01:49:21;8.00;;;5.90;;
12474;SDS011;6302;42.624;23.334;2023-02-24T01:51:55;11.63;;;7.07;;
12474;SDS011;6302;42.624;23.334;2023-02-24T01:54:26;8.03;;;6.50;;
12474;SDS011;6302;42.624;23.334;2023-02-24T01:56:58;9.63;;;6.73;;
12474;SDS011;6302;42.624;23.334;2023-02-24T01:59:26;11.40;;;6.87;;
12474;SDS011;6302;42.624;23.334;2023-02-24T02:01:56;10.13;;;6.50;;
12474;SDS011;6302;42.624;23.334;2023-02-24T02:04:30;8.50;;;6.43;;
12474;SDS011;6302;42.624;23.334;2023-02-24T02:07:05;8.87;;;6.20;;
12474;SDS011;6302;42.624;23.334;2023-02-24T02:09:34;8.73;;;6.47;;
12474;SDS011;6302;42.624;23.334;2023-02-24T02:12:01;9.00;;;5.80;;
12474;SDS011;6302;42.624;23.334;2023-02-24T02:14:28;9.20;;;6.77;;
12474;SDS011;6302;42.624;23.334;2023-02-24T02:17:03;8.67;;;5.77;;
12474;SDS011;6302;42.624;23.334;2023-02-24T02:26:22;10.20;;;6.40;;
12474;SDS011;6302;42.624;23.334;2023-02-24T02:35:31;7.10;;;6.10;;
12474;SDS011;6302;42.624;23.334;2023-02-24T02:38:05;8.17;;;6.37;;
12474;SDS011;6302;42.624;23.334;2023-02-24T02:40:41;11.10;;;6.33;;
12474;SDS011;6302;42.624;23.334;2023-02-24T02:43:14;9.97;;;6.07;;
12474;SDS011;6302;42.624;23.334;2023-02-24T02:45:50;7.37;;;6.10;;
12474;SDS011;6302;42.624;23.334;2023-02-24T02:48:23;7.53;;;5.47;;
12474;SDS011;6302;42.624;23.334;2023-02-24T02:51:00;10.90;;;6.23;;
12474;SDS011;6302;42.624;23.334;2023-02-24T02:53:32;6.83;;;6.13;;
12474;SDS011;6302;42.624;23.334;2023-02-24T02:56:05;7.63;;;5.73;;
12474;SDS011;6302;42.624;23.334;2023-02-24T02:58:38;7.80;;;5.90;;
12474;SDS011;6302;42.624;23.334;2023-02-24T03:01:10;7.47;;;5.73;;
12474;SDS011;6302;42.624;23.334;2023-02-24T03:03:41;6.47;;;5.23;;
12474;SDS011;6302;42.624;23.334;2023-02-24T03:06:13;7.33;;;5.53;;
12474;SDS011;6302;42.624;23.334;2023-02-24T03:08:44;6.93;;;5.43;;
12474;SDS011;6302;42.624;23.334;2023-02-24T03:11:17;5.60;;;4.73;;
12474;SDS011;6302;42.624;23.334;2023-02-24T03:13:45;6.97;;;5.37;;
12474;SDS011;6302;42.624;23.334;2023-02-24T03:16:16;8.33;;;5.57;;
12474;SDS011;6302;42.624;23.334;2023-02-24T03:18:48;8.23;;;5.30;;
12474;SDS011;6302;42.624;23.334;2023-02-24T03:21:22;8.43;;;4.97;;
12474;SDS011;6302;42.624;23.334;2023-02-24T03:23:54;6.03;;;5.37;;
12474;SDS011;6302;42.624;23.334;2023-02-24T03:26:22;8.03;;;5.17;;
12474;SDS011;6302;42.624;23.334;2023-02-24T03:28:55;7.10;;;5.00;;
12474;SDS011;6302;42.624;23.334;2023-02-24T03:31:30;6.93;;;5.27;;
12474;SDS011;6302;42.624;23.334;2023-02-24T03:34:04;6.43;;;5.07;;
12474;SDS011;6302;42.624;23.334;2023-02-24T03:36:35;6.30;;;5.03;;
12474;SDS011;6302;42.624;23.334;2023-02-24T03:39:02;8.00;;;5.73;;
12474;SDS011;6302;42.624;23.334;2023-02-24T03:41:36;8.63;;;5.43;;
12474;SDS011;6302;42.624;23.334;2023-02-24T03:44:09;5.87;;;4.93;;
12474;SDS011;6302;42.624;23.334;2023-02-24T03:46:37;7.00;;;5.30;;
12474;SDS011;6302;42.624;23.334;2023-02-24T03:49:07;8.20;;;5.63;;
12474;SDS011;6302;42.624;23.334;2023-02-24T03:51:42;7.00;;;5.67;;
12474;SDS011;6302;42.624;23.334;2023-02-24T03:54:18;7.90;;;5.83;;
12474;SDS011;6302;42.624;23.334;2023-02-24T03:57:01;6.07;;;4.83;;
12474;SDS011;6302;42.624;23.334;2023-02-24T03:59:42;7.50;;;4.83;;
12474;SDS011;6302;42.624;23.334;2023-02-24T04:02:19;5.23;;;4.73;;
12474;SDS011;6302;42.624;23.334;2023-02-24T04:04:49;5.87;;;4.67;;
12474;SDS011;6302;42.624;23.334;2023-02-24T04:07:24;6.40;;;4.83;;
12474;SDS011;6302;42.624;23.334;2023-02-24T04:10:02;5.40;;;4.33;;
12474;SDS011;6302;42.624;23.334;2023-02-24T04:12:35;5.60;;;4.77;;
12474;SDS011;6302;42.624;23.334;2023-02-24T04:15:12;5.73;;;4.17;;
12474;SDS011;6302;42.624;23.334;2023-02-24T04:17:47;4.40;;;3.93;;
12474;SDS011;6302;42.624;23.334;2023-02-24T04:20:17;5.77;;;4.03;;
12474;SDS011;6302;42.624;23.334;2023-02-24T04:22:47;6.00;;;4.77;;
12474;SDS011;6302;42.624;23.334;2023-02-24T04:25:22;4.43;;;4.00;;
12474;SDS011;6302;42.624;23.334;2023-02-24T04:27:51;6.00;;;4.23;;
12474;SDS011;6302;42.624;23.334;2023-02-24T04:30:20;4.83;;;4.00;;
12474;SDS011;6302;42.624;23.334;2023-02-24T04:32:50;5.30;;;4.33;;
12474;SDS011;6302;42.624;23.334;2023-02-24T04:35:18;5.97;;;4.13;;
12474;SDS011;6302;42.624;23.334;2023-02-24T04:37:48;6.33;;;4.30;;
12474;SDS011;6302;42.624;23.334;2023-02-24T04:40:16;8.80;;;6.37;;
12474;SDS011;6302;42.624;23.334;2023-02-24T04:42:46;11.43;;;7.60;;
12474;SDS011;6302;42.624;23.334;2023-02-24T04:45:14;8.60;;;6.67;;
12474;SDS011;6302;42.624;23.334;2023-02-24T04:47:43;9.80;;;7.50;;
12474;SDS011;6302;42.624;23.334;2023-02-24T04:50:13;9.87;;;6.87;;
12474;SDS011;6302;42.624;23.334;2023-02-24T04:52:48;10.63;;;7.53;;
12474;SDS011;6302;42.624;23.334;2023-02-24T04:55:16;10.93;;;7.20;;
12474;SDS011;6302;42.624;23.334;2023-02-24T04:57:44;10.17;;;6.50;;
12474;SDS011;6302;42.624;23.334;2023-02-24T05:00:12;10.87;;;6.90;;
12474;SDS011;6302;42.624;23.334;2023-02-24T05:02:45;12.93;;;7.17;;
12474;SDS011;6302;42.624;23.334;2023-02-24T05:05:13;8.93;;;6.07;;
12474;SDS011;6302;42.624;23.334;2023-02-24T05:07:40;9.20;;;6.10;;
12474;SDS011;6302;42.624;23.334;2023-02-24T05:10:15;5.70;;;4.83;;
12474;SDS011;6302;42.624;23.334;2023-02-24T05:12:45;6.13;;;4.93;;
12474;SDS011;6302;42.624;23.334;2023-02-24T05:15:11;9.90;;;5.40;;
12474;SDS011;6302;42.624;23.334;2023-02-24T05:17:38;5.90;;;4.90;;
12474;SDS011;6302;42.624;23.334;2023-02-24T05:20:06;6.57;;;3.77;;
12474;SDS011;6302;42.624;23.334;2023-02-24T05:22:52;6.50;;;4.33;;
12474;SDS011;6302;42.624;23.334;2023-02-24T05:25:20;7.50;;;4.60;;
12474;SDS011;6302;42.624;23.334;2023-02-24T05:27:49;11.27;;;7.00;;
12474;SDS011;6302;42.624;23.334;2023-02-24T05:30:16;13.87;;;7.83;;
12474;SDS011;6302;42.624;23.334;2023-02-24T05:32:43;11.20;;;7.00;;
12474;SDS011;6302;42.624;23.334;2023-02-24T05:35:10;7.83;;;6.43;;
12474;SDS011;6302;42.624;23.334;2023-02-24T05:37:37;10.27;;;5.97;;
12474;SDS011;6302;42.624;23.334;2023-02-24T05:40:06;9.00;;;5.00;;
12474;SDS011;6302;42.624;23.334;2023-02-24T05:42:39;8.63;;;6.90;;
12474;SDS011;6302;42.624;23.334;2023-02-24T05:45:09;6.60;;;4.63;;
12474;SDS011;6302;42.624;23.334;2023-02-24T05:47:36;6.50;;;4.83;;
12474;SDS011;6302;42.624;23.334;2023-02-24T05:50:04;8.90;;;5.83;;
12474;SDS011;6302;42.624;23.334;2023-02-24T05:52:33;7.30;;;5.13;;
12474;SDS011;6302;42.624;23.334;2023-02-24T05:55:02;8.73;;;5.97;;
12474;SDS011;6302;42.624;23.334;2023-02-24T05:57:31;9.23;;;7.00;;
12474;SDS011;6302;42.624;23.334;2023-02-24T06:00:01;10.00;;;6.70;;
12474;SDS011;6302;42.624;23.334;2023-02-24T06:02:39;11.07;;;6.33;;
12474;SDS011;6302;42.624;23.334;2023-02-24T06:05:13;8.63;;;5.70;;
12474;SDS011;6302;42.624;23.334;2023-02-24T06:07:49;9.83;;;6.50;;
12474;SDS011;6302;42.624;23.334;2023-02-24T06:10:26;10.53;;;6.43;;
12474;SDS011;6302;42.624;23.334;2023-02-24T06:12:55;7.77;;;5.77;;
12474;SDS011;6302;42.624;23.334;2023-02-24T06:15:23;8.00;;;5.00;;
12474;SDS011;6302;42.624;23.334;2023-02-24T06:17:50;5.60;;;3.73;;
12474;SDS011;6302;42.624;23.334;2023-02-24T06:20:17;4.77;;;4.13;;
12474;SDS011;6302;42.624;23.334;2023-02-24T06:22:46;5.17;;;3.90;;
12474;SDS011;6302;42.624;23.334;2023-02-24T06:25:18;4.10;;;3.43;;
12474;SDS011;6302;42.624;23.334;2023-02-24T06:27:45;4.67;;;3.60;;
12474;SDS011;6302;42.624;23.334;2023-02-24T06:30:17;5.30;;;4.10;;
12474;SDS011;6302;42.624;23.334;2023-02-24T06:32:47;5.80;;;4.50;;
12474;SDS011;6302;42.624;23.334;2023-02-24T06:35:15;5.07;;;4.47;;
12474;SDS011;6302;42.624;23.334;2023-02-24T06:37:42;6.93;;;3.90;;
12474;SDS011;6302;42.624;23.334;2023-02-24T06:40:10;5.17;;;3.83;;
12474;SDS011;6302;42.624;23.334;2023-02-24T06:42:42;4.37;;;3.63;;
12474;SDS011;6302;42.624;23.334;2023-02-24T06:45:10;4.83;;;4.37;;
12474;SDS011;6302;42.624;23.334;2023-02-24T06:47:37;5.00;;;4.43;;
12474;SDS011;6302;42.624;23.334;2023-02-24T06:50:06;5.10;;;4.30;;
12474;SDS011;6302;42.624;23.334;2023-02-24T06:52:34;7.17;;;4.30;;
12474;SDS011;6302;42.624;23.334;2023-02-24T06:55:02;5.53;;;4.93;;
12474;SDS011;6302;42.624;23.334;2023-02-24T06:57:29;6.53;;;5.30;;
12474;SDS011;6302;42.624;23.334;2023-02-24T06:59:58;5.40;;;4.57;;
12474;SDS011;6302;42.624;23.334;2023-02-24T07:02:26;6.37;;;4.67;;
12474;SDS011;6302;42.624;23.334;2023-02-24T07:05:04;6.77;;;5.47;;
12474;SDS011;6302;42.624;23.334;2023-02-24T07:07:32;9.80;;;5.87;;
12474;SDS011;6302;42.624;23.334;2023-02-24T07:09:59;10.07;;;6.07;;
12474;SDS011;6302;42.624;23.334;2023-02-24T07:12:26;9.93;;;6.13;;
12474;SDS011;6302;42.624;23.334;2023-02-24T07:14:53;12.93;;;6.20;;
12474;SDS011;6302;42.624;23.334;2023-02-24T07:17:20;10.37;;;5.80;;
12474;SDS011;6302;42.624;23.334;2023-02-24T07:19:47;7.27;;;4.87;;
12474;SDS011;6302;42.624;23.334;2023-02-24T07:22:14;7.20;;;5.67;;
12474;SDS011;6302;42.624;23.334;2023-02-24T07:24:43;22.03;;;13.40;;
12474;SDS011;6302;42.624;23.334;2023-02-24T07:27:11;25.17;;;12.67;;
12474;SDS011;6302;42.624;23.334;2023-02-24T07:29:46;10.77;;;6.33;;
12474;SDS011;6302;42.624;23.334;2023-02-24T07:32:13;13.33;;;7.77;;
12474;SDS011;6302;42.624;23.334;2023-02-24T07:34:42;9.23;;;6.30;;
12474;SDS011;6302;42.624;23.334;2023-02-24T07:37:09;8.13;;;5.80;;
12474;SDS011;6302;42.624;23.334;2023-02-24T07:39:37;10.10;;;6.50;;
12474;SDS011;6302;42.624;23.334;2023-02-24T07:42:08;9.63;;;6.77;;
12474;SDS011;6302;42.624;23.334;2023-02-24T07:44:37;7.33;;;5.40;;
12474;SDS011;6302;42.624;23.334;2023-02-24T07:47:04;12.07;;;5.87;;
12474;SDS011;6302;42.624;23.334;2023-02-24T07:49:33;8.27;;;6.63;;
12474;SDS011;6302;42.624;23.334;2023-02-24T07:52:00;10.33;;;6.83;;
12474;SDS011;6302;42.624;23.334;2023-02-24T07:54:27;8.17;;;6.20;;
12474;SDS011;6302;42.624;23.334;2023-02-24T07:56:55;7.30;;;6.07;;
12474;SDS011;6302;42.624;23.334;2023-02-24T07:59:24;13.37;;;7.03;;
12474;SDS011;6302;42.624;23.334;2023-02-24T08:01:52;11.33;;;5.67;;
12474;SDS011;6302;42.624;23.334;2023-02-24T08:04:21;12.97;;;7.17;;
12474;SDS011;6302;42.624;23.334;2023-02-24T08:06:51;12.63;;;7.30;;
12474;SDS011;6302;42.624;23.334;2023-02-24T08:09:22;9.73;;;6.90;;
12474;SDS011;6302;42.624;23.334;2023-02-24T08:12:04;14.57;;;8.23;;
12474;SDS011;6302;42.624;23.334;2023-02-24T08:14:33;12.47;;;6.63;;
12474;SDS011;6302;42.624;23.334;2023-02-24T08:19:43;11.63;;;7.30;;
12474;SDS011;6302;42.624;23.334;2023-02-24T08:22:12;13.17;;;7.47;;
12474;SDS011;6302;42.624;23.334;2023-02-24T08:24:49;12.73;;;6.50;;
12474;SDS011;6302;42.624;23.334;2023-02-24T08:27:17;9.97;;;7.00;;
12474;SDS011;6302;42.624;23.334;2023-02-24T08:29:47;10.10;;;6.27;;
12474;SDS011;6302;42.624;23.334;2023-02-24T08:32:25;12.00;;;6.40;;
12474;SDS011;6302;42.624;23.334;2023-02-24T08:34:57;10.13;;;6.53;;
12474;SDS011;6302;42.624;23.334;2023-02-24T08:37:27;19.47;;;10.87;;
12474;SDS011;6302;42.624;23.334;2023-02-24T08:40:04;9.57;;;6.73;;
12474;SDS011;6302;42.624;23.334;2023-02-24T08:42:42;8.67;;;6.67;;
12474;SDS011;6302;42.624;23.334;2023-02-24T08:45:10;9.53;;;6.40;;
12474;SDS011;6302;42.624;23.334;2023-02-24T08:47:38;20.60;;;9.73;;
12474;SDS011;6302;42.624;23.334;2023-02-24T08:50:06;13.87;;;7.63;;
12474;SDS011;6302;42.624;23.334;2023-02-24T08:52:33;16.03;;;8.73;;
12474;SDS011;6302;42.624;23.334;2023-02-24T08:55:00;16.70;;;9.07;;
12474;SDS011;6302;42.624;23.334;2023-02-24T08:57:27;18.63;;;9.50;;
12474;SDS011;6302;42.624;23.334;2023-02-24T08:59:53;19.10;;;7.53;;
12474;SDS011;6302;42.624;23.334;2023-02-24T09:02:24;11.07;;;7.50;;
12474;SDS011;6302;42.624;23.334;2023-02-24T09:04:54;12.23;;;7.23;;
12474;SDS011;6302;42.624;23.334;2023-02-24T09:07:24;21.30;;;10.87;;
12474;SDS011;6302;42.624;23.334;2023-02-24T09:09:52;19.30;;;9.77;;
12474;SDS011;6302;42.624;23.334;2023-02-24T09:12:22;13.10;;;8.40;;
12474;SDS011;6302;42.624;23.334;2023-02-24T09:14:51;13.10;;;7.60;;
12474;SDS011;6302;42.624;23.334;2023-02-24T09:17:25;13.13;;;8.77;;
12474;SDS011;6302;42.624;23.334;2023-02-24T09:20:14;22.17;;;10.57;;
12474;SDS011;6302;42.624;23.334;2023-02-24T09:23:20;15.03;;;8.00;;
12474;SDS011;6302;42.624;23.334;2023-02-24T09:25:54;12.60;;;7.40;;
12474;SDS011;6302;42.624;23.334;2023-02-24T09:28:22;17.00;;;9.50;;
12474;SDS011;6302;42.624;23.334;2023-02-24T09:30:50;16.60;;;9.23;;
12474;SDS011;6302;42.624;23.334;2023-02-24T09:33:20;14.43;;;7.73;;
12474;SDS011;6302;42.624;23.334;2023-02-24T09:35:52;15.67;;;7.50;;
12474;SDS011;6302;42.624;23.334;2023-02-24T09:38:27;11.33;;;7.50;;
12474;SDS011;6302;42.624;23.334;2023-02-24T09:41:19;12.47;;;7.77;;
12474;SDS011;6302;42.624;23.334;2023-02-24T09:43:55;13.57;;;8.07;;
12474;SDS011;6302;42.624;23.334;2023-02-24T09:46:28;12.03;;;7.53;;
12474;SDS011;6302;42.624;23.334;2023-02-24T09:49:01;16.63;;;8.67;;
12474;SDS011;6302;42.624;23.334;2023-02-24T09:51:33;11.17;;;8.07;;
12474;SDS011;6302;42.624;23.334;2023-02-24T09:54:09;12.33;;;8.10;;
12474;SDS011;6302;42.624;23.334;2023-02-24T09:56:40;12.80;;;7.80;;
12474;SDS011;6302;42.624;23.334;2023-02-24T09:59:14;14.40;;;9.53;;
12474;SDS011;6302;42.624;23.334;2023-02-24T10:01:53;11.93;;;7.63;;
12474;SDS011;6302;42.624;23.334;2023-02-24T10:04:40;14.30;;;8.70;;
12474;SDS011;6302;42.624;23.334;2023-02-24T10:07:19;14.83;;;9.57;;
12474;SDS011;6302;42.624;23.334;2023-02-24T10:09:54;18.53;;;9.20;;
12474;SDS011;6302;42.624;23.334;2023-02-24T10:12:43;13.10;;;8.77;;
12474;SDS011;6302;42.624;23.334;2023-02-24T10:15:16;13.63;;;7.93;;
12474;SDS011;6302;42.624;23.334;2023-02-24T10:18:13;11.73;;;8.00;;
12474;SDS011;6302;42.624;23.334;2023-02-24T10:20:52;13.67;;;8.73;;
12474;SDS011;6302;42.624;23.334;2023-02-24T10:23:24;13.70;;;8.93;;
12474;SDS011;6302;42.624;23.334;2023-02-24T10:25:59;16.13;;;8.83;;
12474;SDS011;6302;42.624;23.334;2023-02-24T10:28:31;15.97;;;8.50;;
12474;SDS011;6302;42.624;23.334;2023-02-24T10:31:06;17.73;;;9.33;;
12474;SDS011;6302;42.624;23.334;2023-02-24T10:33:48;13.60;;;8.10;;
12474;SDS011;6302;42.624;23.334;2023-02-24T10:36:20;15.20;;;9.20;;
12474;SDS011;6302;42.624;23.334;2023-02-24T10:38:54;12.40;;;8.10;;
12474;SDS011;6302;42.624;23.334;2023-02-24T10:41:28;12.70;;;8.00;;
12474;SDS011;6302;42.624;23.334;2023-02-24T10:43:55;16.93;;;9.27;;
12474;SDS011;6302;42.624;23.334;2023-02-24T10:46:24;14.13;;;8.30;;
12474;SDS011;6302;42.624;23.334;2023-02-24T10:48:58;11.53;;;7.97;;
12474;SDS011;6302;42.624;23.334;2023-02-24T10:51:31;13.13;;;8.90;;
12474;SDS011;6302;42.624;23.334;2023-02-24T10:54:03;13.40;;;8.60;;
12474;SDS011;6302;42.624;23.334;2023-02-24T10:56:47;14.37;;;8.60;;
12474;SDS011;6302;42.624;23.334;2023-02-24T10:59:39;13.60;;;8.10;;
12474;SDS011;6302;42.624;23.334;2023-02-24T11:02:23;12.23;;;7.83;;
12474;SDS011;6302;42.624;23.334;2023-02-24T11:05:20;12.13;;;7.77;;
12474;SDS011;6302;42.624;23.334;2023-02-24T11:08:10;17.27;;;8.97;;
12474;SDS011;6302;42.624;23.334;2023-02-24T11:10:50;17.17;;;9.17;;
12474;SDS011;6302;42.624;23.334;2023-02-24T11:13:30;14.80;;;9.63;;
12474;SDS011;6302;42.624;23.334;2023-02-24T11:16:16;13.30;;;8.57;;
12474;SDS011;6302;42.624;23.334;2023-02-24T11:19:01;11.73;;;8.00;;
12474;SDS011;6302;42.624;23.334;2023-02-24T11:21:31;14.63;;;8.83;;
12474;SDS011;6302;42.624;23.334;2023-02-24T11:24:00;12.60;;;7.33;;
12474;SDS011;6302;42.624;23.334;2023-02-24T11:26:32;12.70;;;7.70;;
12474;SDS011;6302;42.624;23.334;2023-02-24T11:29:15;13.33;;;8.80;;
12474;SDS011;6302;42.624;23.334;2023-02-24T11:32:06;16.23;;;8.00;;
12474;SDS011;6302;42.624;23.334;2023-02-24T11:34:48;12.83;;;8.63;;
12474;SDS011;6302;42.624;23.334;2023-02-24T11:37:28;12.73;;;8.77;;
12474;SDS011;6302;42.624;23.334;2023-02-24T11:40:04;15.30;;;8.83;;
12474;SDS011;6302;42.624;23.334;2023-02-24T11:42:38;13.30;;;8.83;;
12474;SDS011;6302;42.624;23.334;2023-02-24T11:45:12;11.83;;;8.03;;
12474;SDS011;6302;42.624;23.334;2023-02-24T11:47:48;11.83;;;8.43;;
12474;SDS011;6302;42.624;23.334;2023-02-24T11:50:30;16.37;;;8.93;;
12474;SDS011;6302;42.624;23.334;2023-02-24T11:53:11;14.17;;;8.13;;
12474;SDS011;6302;42.624;23.334;2023-02-24T11:55:46;14.87;;;9.13;;
12474;SDS011;6302;42.624;23.334;2023-02-24T11:58:18;16.27;;;9.07;;
12474;SDS011;6302;42.624;23.334;2023-02-24T12:00:51;12.23;;;9.20;;
12474;SDS011;6302;42.624;23.334;2023-02-24T12:03:24;12.93;;;8.73;;
12474;SDS011;6302;42.624;23.334;2023-02-24T12:05:56;14.00;;;9.27;;
12474;SDS011;6302;42.624;23.334;2023-02-24T12:08:32;12.27;;;8.50;;
12474;SDS011;6302;42.624;23.334;2023-02-24T12:11:04;14.33;;;8.10;;
12474;SDS011;6302;42.624;23.334;2023-02-24T12:13:36;12.40;;;7.77;;
12474;SDS011;6302;42.624;23.334;2023-02-24T12:16:06;13.07;;;8.27;;
12474;SDS011;6302;42.624;23.334;2023-02-24T12:18:40;11.43;;;7.77;;
12474;SDS011;6302;42.624;23.334;2023-02-24T12:21:11;12.50;;;8.33;;
12474;SDS011;6302;42.624;23.334;2023-02-24T12:23:42;15.77;;;9.03;;
12474;SDS011;6302;42.624;23.334;2023-02-24T12:26:14;11.37;;;7.63;;
12474;SDS011;6302;42.624;23.334;2023-02-24T12:28:49;11.53;;;7.57;;
12474;SDS011;6302;42.624;23.334;2023-02-24T12:31:31;12.43;;;8.10;;
12474;SDS011;6302;42.624;23.334;2023-02-24T12:34:06;11.83;;;8.10;;
12474;SDS011;6302;42.624;23.334;2023-02-24T12:36:44;12.07;;;8.43;;
12474;SDS011;6302;42.624;23.334;2023-02-24T12:39:27;15.27;;;8.90;;
12474;SDS011;6302;42.624;23.334;2023-02-24T12:42:05;11.17;;;8.30;;
12474;SDS011;6302;42.624;23.334;2023-02-24T12:44:43;14.60;;;8.40;;
12474;SDS011;6302;42.624;23.334;2023-02-24T12:47:20;14.87;;;8.70;;
12474;SDS011;6302;42.624;23.334;2023-02-24T12:49:58;16.20;;;8.70;;
12474;SDS011;6302;42.624;23.334;2023-02-24T12:52:51;15.33;;;9.00;;
12474;SDS011;6302;42.624;23.334;2023-02-24T12:55:25;11.47;;;8.70;;
12474;SDS011;6302;42.624;23.334;2023-02-24T12:58:01;13.33;;;8.50;;
12474;SDS011;6302;42.624;23.334;2023-02-24T13:00:36;11.40;;;9.00;;
12474;SDS011;6302;42.624;23.334;2023-02-24T13:03:22;11.77;;;8.83;;
12474;SDS011;6302;42.624;23.334;2023-02-24T13:06:00;14.93;;;9.00;;
12474;SDS011;6302;42.624;23.334;2023-02-24T13:08:34;15.93;;;9.63;;
12474;SDS011;6302;42.624;23.334;2023-02-24T13:11:09;12.27;;;9.30;;
12474;SDS011;6302;42.624;23.334;2023-02-24T13:13:46;13.00;;;9.73;;
12474;SDS011;6302;42.624;23.334;2023-02-24T13:16:28;14.33;;;9.20;;
12474;SDS011;6302;42.624;23.334;2023-02-24T13:19:03;16.23;;;9.43;;
12474;SDS011;6302;42.624;23.334;2023-02-24T13:21:31;14.47;;;8.63;;
12474;SDS011;6302;42.624;23.334;2023-02-24T13:23:59;15.27;;;8.47;;
12474;SDS011;6302;42.624;23.334;2023-02-24T13:26:28;11.70;;;9.27;;
12474;SDS011;6302;42.624;23.334;2023-02-24T13:29:02;15.77;;;8.83;;
12474;SDS011;6302;42.624;23.334;2023-02-24T13:31:38;12.73;;;8.50;;
12474;SDS011;6302;42.624;23.334;2023-02-24T13:34:12;14.07;;;8.27;;
12474;SDS011;6302;42.624;23.334;2023-02-24T13:36:44;11.80;;;8.70;;
12474;SDS011;6302;42.624;23.334;2023-02-24T13:39:19;13.50;;;8.70;;
12474;SDS011;6302;42.624;23.334;2023-02-24T13:41:59;14.63;;;9.20;;
12474;SDS011;6302;42.624;23.334;2023-02-24T13:44:30;12.83;;;8.87;;
12474;SDS011;6302;42.624;23.334;2023-02-24T13:50:13;13.33;;;9.00;;
12474;SDS011;6302;42.624;23.334;2023-02-24T13:52:58;14.83;;;8.77;;
12474;SDS011;6302;42.624;23.334;2023-02-24T13:55:39;12.23;;;8.47;;
12474;SDS011;6302;42.624;23.334;2023-02-24T13:58:24;16.23;;;8.27;;
12474;SDS011;6302;42.624;23.334;2023-02-24T14:01:04;12.87;;;9.13;;
12474;SDS011;6302;42.624;23.334;2023-02-24T14:03:33;12.53;;;9.07;;
12474;SDS011;6302;42.624;23.334;2023-02-24T14:06:02;11.20;;;7.83;;
12474;SDS011;6302;42.624;23.334;2023-02-24T14:08:34;15.13;;;8.87;;
12474;SDS011;6302;42.624;23.334;2023-02-24T14:11:08;14.83;;;9.10;;
12474;SDS011;6302;42.624;23.334;2023-02-24T14:13:38;12.30;;;9.30;;
12474;SDS011;6302;42.624;23.334;2023-02-24T14:16:07;15.00;;;9.57;;
12474;SDS011;6302;42.624;23.334;2023-02-24T14:18:35;19.30;;;12.30;;
12474;SDS011;6302;42.624;23.334;2023-02-24T14:21:02;18.97;;;13.13;;
12474;SDS011;6302;42.624;23.334;2023-02-24T14:23:29;24.27;;;13.83;;
12474;SDS011;6302;42.624;23.334;2023-02-24T14:25:58;22.83;;;14.17;;
12474;SDS011;6302;42.624;23.334;2023-02-24T14:28:28;19.27;;;13.60;;
12474;SDS011;6302;42.624;23.334;2023-02-24T14:30:57;21.87;;;14.60;;
12474;SDS011;6302;42.624;23.334;2023-02-24T14:33:28;22.37;;;13.00;;
12474;SDS011;6302;42.624;23.334;2023-02-24T14:35:56;17.73;;;13.33;;
12474;SDS011;6302;42.624;23.334;2023-02-24T14:38:29;20.17;;;13.10;;
12474;SDS011;6302;42.624;23.334;2023-02-24T14:40:59;19.73;;;14.20;;
12474;SDS011;6302;42.624;23.334;2023-02-24T14:43:27;19.20;;;13.60;;
12474;SDS011;6302;42.624;23.334;2023-02-24T14:45:53;21.33;;;14.90;;
12474;SDS011;6302;42.624;23.334;2023-02-24T14:48:22;22.47;;;14.37;;
12474;SDS011;6302;42.624;23.334;2023-02-24T14:50:52;20.33;;;14.80;;
12474;SDS011;6302;42.624;23.334;2023-02-24T14:53:22;19.70;;;13.83;;
12474;SDS011;6302;42.624;23.334;2023-02-24T14:55:54;24.43;;;15.17;;
12474;SDS011;6302;42.624;23.334;2023-02-24T14:58:24;21.10;;;14.20;;
12474;SDS011;6302;42.624;23.334;2023-02-24T15:00:54;21.47;;;15.23;;
12474;SDS011;6302;42.624;23.334;2023-02-24T15:03:25;23.10;;;16.03;;
12474;SDS011;6302;42.624;23.334;2023-02-24T15:05:57;20.67;;;14.70;;
12474;SDS011;6302;42.624;23.334;2023-02-24T15:08:30;25.00;;;15.97;;
12474;SDS011;6302;42.624;23.334;2023-02-24T15:11:00;27.17;;;17.17;;
12474;SDS011;6302;42.624;23.334;2023-02-24T15:13:37;25.77;;;16.77;;
12474;SDS011;6302;42.624;23.334;2023-02-24T15:16:09;27.03;;;17.00;;
12474;SDS011;6302;42.624;23.334;2023-02-24T15:18:38;24.60;;;15.17;;
12474;SDS011;6302;42.624;23.334;2023-02-24T15:21:18;23.43;;;16.00;;
12474;SDS011;6302;42.624;23.334;2023-02-24T15:23:47;22.87;;;15.80;;
12474;SDS011;6302;42.624;23.334;2023-02-24T15:26:25;27.87;;;16.60;;
12474;SDS011;6302;42.624;23.334;2023-02-24T15:28:56;27.80;;;15.60;;